createdAt,value
2023-03-03T00:06:34.117Z,57.10
2023-03-03T00:14:01.093Z,57.20
2023-03-03T00:16:32.921Z,57.20
2023-03-03T00:19:01.948Z,57.30
2023-03-03T00:21:32.799Z,57.40
2023-03-03T00:24:22.229Z,57.50
2023-03-03T00:26:52.602Z,57.50
2023-03-03T00:29:36.695Z,57.60
2023-03-03T00:32:24.618Z,57.70
2023-03-03T00:34:54.955Z,57.80
2023-03-03T00:37:31.099Z,57.80
2023-03-03T00:40:36.349Z,57.80
2023-03-03T00:43:19.039Z,57.80
2023-03-03T00:45:50.772Z,57.90
2023-03-03T00:48:28.639Z,58.00
2023-03-03T00:50:58.661Z,58.10
2023-03-03T00:53:29.570Z,58.10
2023-03-03T00:55:58.688Z,58.20
2023-03-03T01:00:58.872Z,58.40
2023-03-03T01:08:34.652Z,58.30
2023-03-03T01:11:10.508Z,58.40
2023-03-03T01:16:10.868Z,58.50
2023-03-03T01:21:10.867Z,58.70
2023-03-03T01:28:40.306Z,59.00
2023-03-03T01:36:09.260Z,59.30
2023-03-03T01:38:38.136Z,59.30
2023-03-03T01:41:07.077Z,59.30
2023-03-03T01:46:52.490Z,59.50
2023-03-03T01:49:27.186Z,59.60
2023-03-03T01:57:07.550Z,59.70
2023-03-03T02:02:09.724Z,59.80
2023-03-03T02:04:38.090Z,60.00
2023-03-03T02:07:11.105Z,60.00
2023-03-03T02:12:23.629Z,60.20
2023-03-03T02:17:21.834Z,60.10
2023-03-03T02:20:01.593Z,60.20
2023-03-03T02:22:44.174Z,60.10
2023-03-03T02:25:20.038Z,60.10
2023-03-03T02:30:23.211Z,60.40
2023-03-03T02:38:20.280Z,60.70
2023-03-03T02:41:01.043Z,60.70
2023-03-03T02:44:01.470Z,60.70
2023-03-03T02:46:46.422Z,61.00
2023-03-03T02:49:17.693Z,61.10
2023-03-03T02:56:46.920Z,61.40
2023-03-03T03:09:25.700Z,62.20
2023-03-03T03:11:55.406Z,62.20
2023-03-03T03:14:28.557Z,62.30
2023-03-03T03:24:28.754Z,62.80
2023-03-03T03:29:32.217Z,63.10
2023-03-03T03:41:58.276Z,63.60
2023-03-03T03:46:57.571Z,63.80
2023-03-03T04:01:57.879Z,64.70
2023-03-03T04:09:24.731Z,65.10
2023-03-03T04:19:20.340Z,65.60
2023-03-03T04:24:20.463Z,65.90
2023-03-03T04:34:19.352Z,66.70
2023-03-03T04:51:44.038Z,67.50
2023-03-03T05:04:08.547Z,67.80
2023-03-03T05:09:06.706Z,68.50
2023-03-03T05:23:58.067Z,69.50
2023-03-03T05:26:27.683Z,69.70
2023-03-03T05:43:51.994Z,70.70
2023-03-03T06:01:13.392Z,71.80
2023-03-03T06:18:35.175Z,72.70
2023-03-03T06:48:21.353Z,75.00
2023-03-03T06:53:20.420Z,75.40
2023-03-03T06:58:20.409Z,75.90
2023-03-03T07:00:56.201Z,76.10
2023-03-03T07:03:26.900Z,76.30
2023-03-03T07:08:26.498Z,76.80
2023-03-03T07:10:55.212Z,77.20
2023-03-03T07:13:25.523Z,77.40
2023-03-03T07:15:55.874Z,77.60
2023-03-03T07:18:38.626Z,77.80
2023-03-03T07:21:22.123Z,78.20
2023-03-03T07:23:53.564Z,78.40
2023-03-03T07:26:26.321Z,78.70
2023-03-03T07:28:57.516Z,79.00
2023-03-03T07:31:36.948Z,79.10
2023-03-03T07:34:20.753Z,79.30
2023-03-03T07:36:51.802Z,79.50
2023-03-03T07:39:40.244Z,79.80
2023-03-03T07:42:23.511Z,80.10
2023-03-03T07:45:04.264Z,80.70
2023-03-03T07:47:37.948Z,80.80
2023-03-03T07:50:17.312Z,81.10
2023-03-03T07:52:56.776Z,81.30
2023-03-03T07:55:35.648Z,81.50
2023-03-03T07:58:23.942Z,81.80
2023-03-03T08:01:39.702Z,82.10
2023-03-03T08:04:20.954Z,82.40
2023-03-03T08:06:59.586Z,82.60
2023-03-03T08:09:51.037Z,82.70
2023-03-03T08:12:42.899Z,82.90
2023-03-03T08:15:21.236Z,82.80
2023-03-03T08:17:51.906Z,82.80
2023-03-03T08:20:45.536Z,82.60
2023-03-03T08:23:15.418Z,82.70
2023-03-03T08:28:15.120Z,82.70
2023-03-03T08:30:44.611Z,82.80
2023-03-03T08:33:14.260Z,82.70
2023-03-03T08:45:40.911Z,82.20
2023-03-03T08:50:38.458Z,81.80
2023-03-03T09:03:03.031Z,81.80
2023-03-03T09:05:31.865Z,81.60
2023-03-03T09:08:00.693Z,81.40
2023-03-03T09:10:34.082Z,81.10
2023-03-03T09:13:09.474Z,81.00
2023-03-03T09:15:39.954Z,80.80
2023-03-03T09:18:17.746Z,80.60
2023-03-03T09:20:47.632Z,80.50
2023-03-03T09:23:36.412Z,80.30
2023-03-03T09:26:30.334Z,80.20
2023-03-03T09:29:17.954Z,79.80
2023-03-03T09:31:49.719Z,79.60
2023-03-03T09:34:24.536Z,79.40
2023-03-03T09:36:56.016Z,79.20
2023-03-03T09:39:27.423Z,79.10
2023-03-03T09:42:56.928Z,78.80
2023-03-03T09:46:02.599Z,78.60
2023-03-03T09:49:01.298Z,78.40
2023-03-03T09:51:58.069Z,78.20
2023-03-03T09:54:54.338Z,79.00
2023-03-03T09:57:32.863Z,77.90
2023-03-03T10:00:22.504Z,77.90
2023-03-03T10:03:40.565Z,77.70
2023-03-03T10:06:21.951Z,77.60
2023-03-03T10:09:09.648Z,77.50
2023-03-03T10:11:47.735Z,77.40
2023-03-03T10:14:42.685Z,77.10
2023-03-03T10:17:35.034Z,76.80
2023-03-03T10:20:23.167Z,76.60
2023-03-03T10:22:56.130Z,76.30
2023-03-03T10:25:42.251Z,76.20
2023-03-03T10:28:36.889Z,76.00
2023-03-03T10:31:18.588Z,75.40
2023-03-03T10:33:57.753Z,75.00
2023-03-03T10:36:39.900Z,74.60
2023-03-03T10:39:31.607Z,74.10
2023-03-03T10:42:22.461Z,73.90
2023-03-03T10:45:19.500Z,73.80
2023-03-03T10:48:13.393Z,73.50
2023-03-03T10:50:54.511Z,73.20
2023-03-03T10:53:35.781Z,72.50
2023-03-03T10:56:21.733Z,72.30
2023-03-03T10:59:06.585Z,71.90
2023-03-03T11:01:48.553Z,71.40
2023-03-03T11:05:02.189Z,71.00
2023-03-03T11:07:40.528Z,70.70
2023-03-03T11:10:35.435Z,70.60
2023-03-03T11:13:13.779Z,70.40
2023-03-03T11:16:03.761Z,70.10
2023-03-03T11:18:46.867Z,69.60
2023-03-03T11:21:23.511Z,69.00
2023-03-03T11:24:28.140Z,68.60
2023-03-03T11:27:14.131Z,68.00
2023-03-03T11:30:03.536Z,67.70
2023-03-03T11:32:44.340Z,67.20
2023-03-03T11:35:28.980Z,66.80
2023-03-03T11:38:24.962Z,66.40
2023-03-03T11:40:58.176Z,65.80
2023-03-03T11:43:37.464Z,65.50
2023-03-03T11:46:10.793Z,65.20
2023-03-03T11:48:49.288Z,65.00
2023-03-03T11:51:25.566Z,64.80
2023-03-03T11:54:02.329Z,64.30
2023-03-03T11:56:36.911Z,64.30
2023-03-03T11:59:45.757Z,64.10
2023-03-03T12:02:35.257Z,63.80
2023-03-03T12:05:14.242Z,63.40
2023-03-03T12:07:55.264Z,63.00
2023-03-03T12:10:31.699Z,62.70
2023-03-03T12:13:06.287Z,62.10
2023-03-03T12:15:46.574Z,61.70
2023-03-03T12:18:42.757Z,61.50
2023-03-03T12:21:32.055Z,61.30
2023-03-03T12:24:17.515Z,61.10
2023-03-03T12:26:55.357Z,60.80
2023-03-03T12:29:33.180Z,60.50
2023-03-03T12:32:16.708Z,60.40
2023-03-03T12:34:52.843Z,60.10
2023-03-03T12:37:43.162Z,59.80
2023-03-03T12:40:17.568Z,59.20
2023-03-03T12:43:03.112Z,59.10
2023-03-03T12:45:43.341Z,58.90
2023-03-03T12:48:21.216Z,58.70
2023-03-03T12:51:01.526Z,58.60
2023-03-03T12:54:09.130Z,58.40
2023-03-03T12:56:45.807Z,57.90
2023-03-03T12:59:26.089Z,57.40
2023-03-03T13:02:18.348Z,57.10
2023-03-03T13:04:57.642Z,56.90
2023-03-03T13:07:34.735Z,56.80
2023-03-03T13:10:17.336Z,56.60
2023-03-03T13:12:50.538Z,56.00
2023-03-03T13:15:31.668Z,55.90
2023-03-03T13:18:20.707Z,55.70
2023-03-03T13:20:54.983Z,55.70
2023-03-03T13:23:39.888Z,55.50
2023-03-03T13:26:18.205Z,55.40
2023-03-03T13:29:10.522Z,55.40
2023-03-03T13:31:43.094Z,55.00
2023-03-03T13:34:24.995Z,54.70
2023-03-03T13:36:59.868Z,54.50
2023-03-03T13:39:32.119Z,54.90
2023-03-03T13:42:07.511Z,54.30
2023-03-03T13:44:42.402Z,54.10
2023-03-03T13:47:19.590Z,54.00
2023-03-03T13:50:16.663Z,53.80
2023-03-03T13:52:59.243Z,53.70
2023-03-03T13:55:34.801Z,53.60
2023-03-03T13:58:18.590Z,53.40
2023-03-03T14:01:02.430Z,53.50
2023-03-03T14:03:59.113Z,53.20
2023-03-03T14:06:29.161Z,53.10
2023-03-03T14:09:33.507Z,53.10
2023-03-03T14:12:11.913Z,52.90
2023-03-03T14:14:56.620Z,52.80
2023-03-03T14:17:39.342Z,52.80
2023-03-03T14:20:22.178Z,52.50
2023-03-03T14:22:57.727Z,52.50
2023-03-03T14:25:26.719Z,52.30
2023-03-03T14:28:13.912Z,52.20
2023-03-03T14:30:44.448Z,52.20
2023-03-03T14:33:29.647Z,52.20
2023-03-03T14:36:06.900Z,52.60
2023-03-03T14:38:49.095Z,52.50
2023-03-03T14:41:37.344Z,52.40
2023-03-03T14:44:27.924Z,52.40
2023-03-03T14:47:22.360Z,52.30
2023-03-03T14:52:26.880Z,52.10
2023-03-03T14:54:57.476Z,52.20
2023-03-03T14:57:46.362Z,52.20
2023-03-03T15:00:36.463Z,52.30
2023-03-03T15:03:23.736Z,52.30
2023-03-03T15:05:53.125Z,52.10
2023-03-03T15:08:32.829Z,52.10
2023-03-03T15:11:20.433Z,52.00
2023-03-03T15:16:22.741Z,51.90
2023-03-03T15:22:08.682Z,52.10
2023-03-03T15:24:43.818Z,52.00
2023-03-03T15:27:20.436Z,52.10
2023-03-03T15:30:03.594Z,52.20
2023-03-03T15:32:41.474Z,52.20
2023-03-03T15:35:32.588Z,52.40
2023-03-03T15:38:12.164Z,52.50
2023-03-03T15:40:49.202Z,52.50
2023-03-03T15:43:28.310Z,52.40
2023-03-03T15:46:12.058Z,52.20
2023-03-03T15:48:55.856Z,52.30
2023-03-03T15:52:03.227Z,52.20
2023-03-03T15:54:46.865Z,52.20
2023-03-03T15:57:22.775Z,52.20
2023-03-03T16:00:38.694Z,52.30
2023-03-03T16:03:15.304Z,52.30
2023-03-03T16:05:54.790Z,52.30
2023-03-03T16:08:41.279Z,52.40
2023-03-03T16:11:19.266Z,52.40
2023-03-03T16:14:02.485Z,52.60
2023-03-03T16:16:43.985Z,52.60
2023-03-03T16:19:27.942Z,52.70
2023-03-03T16:22:18.270Z,52.70
2023-03-03T16:25:06.292Z,52.80
2023-03-03T16:27:42.316Z,52.80
2023-03-03T16:30:28.950Z,52.80
2023-03-03T16:33:15.098Z,52.90
2023-03-03T16:35:51.915Z,53.00
2023-03-03T16:38:29.072Z,53.10
2023-03-03T16:41:01.823Z,53.20
2023-03-03T16:43:44.451Z,53.30
2023-03-03T16:46:29.596Z,53.50
2023-03-03T16:49:06.093Z,53.90
2023-03-03T16:51:46.866Z,53.90
2023-03-03T16:54:26.466Z,54.10
2023-03-03T16:57:09.787Z,54.20
2023-03-03T16:59:56.802Z,54.30
2023-03-03T17:02:56.045Z,54.40
2023-03-03T17:05:34.421Z,54.60
2023-03-03T17:08:28.729Z,54.80
2023-03-03T17:11:12.107Z,54.80
2023-03-03T17:14:33.370Z,54.80
2023-03-03T17:17:12.145Z,55.00
2023-03-03T17:19:58.504Z,55.10
2023-03-03T17:22:42.241Z,55.30
2023-03-03T17:25:21.194Z,55.30
2023-03-03T17:28:14.860Z,55.40
2023-03-03T17:30:53.067Z,55.70
2023-03-03T17:33:47.305Z,55.80
2023-03-03T17:36:32.001Z,55.90
2023-03-03T17:39:15.690Z,56.00
2023-03-03T17:41:53.220Z,56.20
2023-03-03T17:44:31.207Z,56.30
2023-03-03T17:47:05.529Z,56.40
2023-03-03T17:50:01.498Z,56.50
2023-03-03T17:52:55.791Z,56.50
2023-03-03T17:55:56.505Z,56.70
2023-03-03T17:59:09.084Z,56.80
2023-03-03T18:02:01.721Z,56.90
2023-03-03T18:05:23.345Z,57.10
2023-03-03T18:08:20.553Z,57.20
2023-03-03T18:11:11.391Z,57.30
2023-03-03T18:14:21.616Z,57.40
2023-03-03T18:17:16.891Z,57.60
2023-03-03T18:20:17.895Z,57.80
2023-03-03T18:22:48.141Z,57.80
2023-03-03T18:25:19.660Z,57.90
2023-03-03T18:28:10.028Z,58.00
2023-03-03T18:31:04.616Z,58.00
2023-03-03T18:33:43.512Z,58.20
2023-03-03T18:36:39.196Z,58.20
2023-03-03T18:39:14.125Z,58.40
2023-03-03T18:42:30.426Z,58.50
2023-03-03T18:48:10.659Z,58.60
2023-03-03T18:50:41.109Z,58.70
2023-03-03T18:53:29.543Z,58.90
2023-03-03T18:55:59.560Z,59.00
2023-03-03T18:58:38.139Z,59.10
2023-03-03T19:01:43.525Z,59.20
2023-03-03T19:04:26.809Z,59.20
2023-03-03T19:07:26.384Z,59.30
2023-03-03T19:10:01.540Z,59.50
2023-03-03T19:12:54.906Z,59.50
2023-03-03T19:15:47.777Z,59.70
2023-03-03T19:18:20.028Z,59.90
2023-03-03T19:20:56.217Z,60.00
2023-03-03T19:23:50.284Z,60.00
2023-03-03T19:27:15.074Z,60.10
2023-03-03T19:30:37.883Z,60.30
2023-03-03T19:33:27.359Z,60.40
2023-03-03T19:36:21.591Z,60.60
2023-03-03T19:39:20.826Z,60.80
2023-03-03T19:42:08.052Z,60.80
2023-03-03T19:44:56.722Z,60.90
2023-03-03T19:47:37.753Z,61.00
2023-03-03T19:50:23.604Z,61.10
2023-03-03T19:53:03.151Z,61.20
2023-03-03T19:55:45.458Z,61.30
2023-03-03T19:58:27.222Z,61.40
2023-03-03T20:01:08.375Z,61.60
2023-03-03T20:04:11.652Z,61.60
2023-03-03T20:06:55.397Z,61.70
2023-03-03T20:09:40.218Z,61.90
2023-03-03T20:12:31.089Z,62.00
2023-03-03T20:15:12.250Z,62.30
2023-03-03T20:18:04.125Z,62.40
2023-03-03T20:20:56.072Z,62.60
2023-03-03T20:23:33.200Z,62.80
2023-03-03T20:26:08.079Z,63.10
2023-03-03T20:29:03.350Z,63.20
2023-03-03T20:31:42.333Z,63.50
2023-03-03T20:34:17.164Z,63.60
2023-03-03T20:36:59.023Z,63.80
2023-03-03T20:39:44.647Z,63.90
2023-03-03T20:42:29.175Z,63.90
2023-03-03T20:45:22.888Z,64.10
2023-03-03T20:48:12.136Z,64.30
2023-03-03T20:50:57.748Z,64.50
2023-03-03T20:53:36.935Z,64.60
2023-03-03T20:56:13.967Z,64.70
2023-03-03T20:59:14.396Z,64.90
2023-03-03T21:01:53.171Z,65.10
2023-03-03T21:04:26.152Z,65.20
2023-03-03T21:09:30.265Z,65.60
2023-03-03T21:11:59.928Z,65.90
2023-03-03T21:14:31.500Z,66.10
2023-03-03T21:17:02.654Z,66.40
2023-03-03T21:19:34.872Z,66.60
2023-03-03T21:22:04.443Z,66.90
2023-03-03T21:24:50.537Z,67.20
2023-03-03T21:27:31.384Z,67.40
2023-03-03T21:30:12.966Z,67.70
2023-03-03T21:32:44.007Z,67.90
2023-03-03T21:35:17.032Z,68.00
2023-03-03T21:37:50.783Z,68.30
2023-03-03T21:40:25.270Z,68.40
2023-03-03T21:42:56.326Z,68.50
2023-03-03T21:50:25.849Z,68.80
2023-03-03T22:20:15.722Z,71.40
2023-03-03T22:22:44.243Z,71.50
2023-03-03T22:25:13.797Z,71.90
2023-03-03T22:30:12.556Z,72.40
2023-03-03T22:35:10.886Z,72.50
2023-03-03T22:37:39.485Z,72.60
2023-03-03T22:40:09.504Z,72.50
2023-03-03T22:42:39.111Z,72.50
2023-03-03T22:45:10.025Z,72.60
2023-03-03T22:47:38.681Z,72.80
2023-03-03T22:50:07.923Z,73.00
2023-03-03T22:55:05.436Z,73.20
2023-03-03T22:57:33.881Z,73.30
2023-03-03T23:00:04.283Z,73.50
2023-03-03T23:10:07.144Z,74.10
2023-03-03T23:15:13.118Z,74.40
2023-03-03T23:20:13.730Z,75.60
2023-03-03T23:32:41.395Z,76.70
2023-03-03T23:35:10.249Z,76.80
2023-03-03T23:47:36.450Z,77.80
2023-03-03T23:52:33.845Z,77.80
